• Join FlightAware (Why Join?)
  • Login
  • US Flag 
09:48PM EDT


 

Airport Tracker/Info


-or-


 

Live Flight TrackerFlight Track Log ✈ AWE3921 ✈ 05-Apr-2013 ✈ KMHT - KDCA

Flight Track Log - Related Links

Times and Time Zones

All times are in EDT time to prevent confusion due to time zone crossing. See the AWE3921 flight status page for this flight to view local times or setup timezone preferences in your user account.

Time Position Orientation Groundspeed Altitude Reporting Facility
EDT Latitude Longitude Course Direction KTS MPH feet Rate Location/Type
12:08PM 42.9333 -71.4500 144° Southeast 147 169 900  Level KA90
12:09PM 42.9050 -71.4933 228° Southwest 183 211 2,300 2,100 Climbing Boston Center
12:10PM 42.9531 -71.5097 346° North 235 270 4,600 2,400 Climbing Boston Center
12:11PM 43.0502 -71.0993 65° Northeast  Level FlightAware Approximate
12:11PM 42.9794 -71.4297 66° East 302 348 7,200  Level Boston Center
12:12PM 43.0809 -70.9797 132° Southeast  Level FlightAware Approximate
12:12PM 43.0036 -71.3358 71° East 306 352 8,600  Level Boston Center
12:13PM 43.0106 -70.8939 144° Southeast  Level FlightAware Approximate
12:13PM 43.0317 -71.2244 71° East 301 346 10,800  Level Boston Center
12:14PM 43.0656 -71.0931 71° East 323 372 13,000 1,980 Climbing Boston Center
12:15PM 43.0642 -70.9767 91° East 337 388 14,800 1,980 Climbing Boston Center
12:16PM 42.9819 -70.8989 145° Southeast 294 338 17,000 2,040 Climbing Boston Center
12:17PM 42.9175 -70.9175 192° South 247 284 18,900 1,680 Climbing Boston Center
12:18PM 42.8367 -70.9536 198° South 266 306 20,400 1,320 Climbing Boston Center
12:19PM 42.7581 -70.9950 201° Southwest 280 322 21,900 1,440 Climbing Boston Center
12:20PM 42.6647 -71.0425 201° Southwest 293 337 23,600 1,500 Climbing Boston Center
12:21PM 42.6094 -71.1200 226° Southwest 288 331 24,900 1,140 Climbing Boston Center
12:22PM 42.5689 -71.2167 240° Southwest 288 331 25,900 540 Climbing Boston Center
12:23PM 42.5303 -71.3161 242° Southwest 296 341 26,000 300 Climbing Boston Center
12:24PM 42.4875 -71.4153 240° Southwest 301 346 26,600 720 Climbing Boston Center
12:25PM 42.4486 -71.5144 242° Southwest 306 352 27,500 660 Climbing Boston Center
12:26PM 42.3933 -71.6278 237° Southwest 323 372 28,000 240 Climbing Boston Center
12:27PM 42.3503 -71.7350 242° Southwest 323 372 28,000  Level Boston Center
12:28PM 42.3031 -71.8422 239° Southwest 328 377 28,000  Level Boston Center
12:29PM 42.2597 -71.9492 241° Southwest 328 377 28,000  Level Boston Center
12:30PM 42.2100 -72.0589 239° Southwest 340 391 28,000  Level Boston Center
12:31PM 42.1519 -72.1572 231° Southwest 340 391 28,000  Level Boston Center
12:32PM 42.0939 -72.2528 231° Southwest 340 391 28,000  Level Boston Center
12:33PM 42.0356 -72.3506 231° Southwest 340 391 28,000  Level Boston Center
12:34PM 41.9753 -72.4486 230° Southwest 345 397 28,000  Level Boston Center
12:35PM 41.9272 -72.5294 231° Southwest 351 404 28,000  Level Boston Center
12:36PM 41.8564 -72.6464 231° Southwest 345 397 28,000  Level Boston Center
12:37PM 41.7997 -72.7408 231° Southwest 355 409 28,000  Level Boston Center
12:38PM 41.7369 -72.8436 231° Southwest 360 414 28,000  Level Boston Center
12:39PM 41.6739 -72.9458 230° Southwest 360 414 28,000  Level Boston Center
12:40PM 41.6131 -73.0453 231° Southwest 360 414 28,000  Level Boston Center
12:41PM 41.5519 -73.1447 231° Southwest 360 414 28,000  Level Boston Center
12:42PM 41.4867 -73.2519 231° Southwest 350 403 28,000  Level Boston Center
12:44PM 41.3711 -73.4392 231° Southwest 336 387 28,000  Level New York Center
12:45PM 41.3103 -73.5389 231° Southwest 346 398 28,000  Level New York Center
12:46PM 41.2497 -73.6383 231° Southwest 352 405 28,000  Level New York Center
12:47PM 41.1889 -73.7433 232° Southwest 358 412 28,000  Level New York Center
12:48PM 41.1278 -73.8453 232° Southwest 363 418 28,000  Level New York Center
12:49PM 41.0669 -73.9469 232° Southwest 363 418 28,000  Level New York Center
12:50PM 41.0078 -74.0486 232° Southwest 363 418 28,000  Level New York Center
12:51PM 40.9467 -74.1500 231° Southwest 363 418 28,000  Level New York Center
12:52PM 40.8747 -74.2592 229° Southwest 363 418 28,000  Level New York Center
12:53PM 40.8133 -74.3628 232° Southwest 363 418 28,000  Level New York Center
12:54PM 40.7539 -74.4639 232° Southwest 363 418 28,000  Level New York Center
12:55PM 40.6922 -74.5644 231° Southwest 363 418 28,000  Level New York Center
12:56PM 40.6308 -74.6622 230° Southwest 363 418 28,000 -240 Level New York Center
12:57PM 40.5669 -74.7678 231° Southwest 363 418 27,600 -720 Descending New York Center
12:58PM 40.4989 -74.8622 227° Southwest 363 418 26,600 -1,020 Descending New York Center
12:59PM 40.4289 -74.9617 227° Southwest 375 432 25,600 -1,020 Descending New York Center
01:00PM 40.3608 -75.0556 226° Southwest 375 432 24,600 -1,020 Descending New York Center
01:01PM 40.2925 -75.1547 228° Southwest 370 426 23,600 -1,020 Descending New York Center
01:02PM 40.2267 -75.2456 227° Southwest 370 426 22,600 -840 Descending New York Center
01:03PM 40.1606 -75.3419 228° Southwest 365 420 22,000 -360 Descending New York Center
01:04PM 40.0944 -75.4300 226° Southwest 354 407 22,000  Level New York Center
01:05PM 40.0350 -75.5128 227° Southwest 342 394 22,000  Level New York Center
01:06PM 39.9731 -75.5978 226° Southwest 331 381 22,000  Level New York Center
01:07PM 39.9131 -75.6858 228° Southwest 331 381 22,000  Level New York Center
01:08PM 39.8633 -75.7797 235° Southwest 331 381 22,000 -300 Level New York Center
01:09PM 39.8156 -75.8736 236° Southwest 320 368 21,400 -1,080 Descending New York Center
01:10PM 39.7656 -75.9697 236° Southwest 320 368 19,900 -1,560 Descending New York Center
01:11PM 39.7181 -76.0528 233° Southwest 325 374 18,400 -1,620 Descending New York Center
01:12PM 39.6700 -76.1461 236° Southwest 320 368 16,800 -1,680 Descending New York Center
01:13PM 39.6167 -76.2667 240° Southwest 313 360 15,000 -1,620 Descending Potomac TRACON
01:14PM 39.5500 -76.3333 218° Southwest 318 366 13,500 -1,440 Descending Potomac TRACON
01:15PM 39.4833 -76.4000 218° Southwest 319 367 12,300 -1,020 Descending Potomac TRACON
01:16PM 39.4000 -76.4667 212° Southwest 315 362 11,500 -900 Descending Potomac TRACON
01:17PM 39.3333 -76.5167 210° Southwest 289 333 10,500 -780 Descending Potomac TRACON
01:18PM 39.2667 -76.5833 218° Southwest 284 327 10,000 -360 Descending Potomac TRACON
01:19PM 39.2167 -76.6333 218° Southwest 291 335 9,900 -60 Descending Potomac TRACON
01:20PM 39.1500 -76.6833 210° Southwest 285 328 9,900  Level Potomac TRACON
01:21PM 39.1000 -76.7500 226° Southwest 283 326 10,000 -360 Climbing Potomac TRACON
01:22PM 39.0333 -76.8167 218° Southwest 280 322 9,300 -1,140 Descending Potomac TRACON
01:23PM 38.9667 -76.9000 224° Southwest 280 322 7,700 -1,560 Descending Potomac TRACON
01:24PM 38.9000 -76.9333 201° Southwest 286 329 6,000 -1,680 Descending Potomac TRACON
01:25PM 38.8333 -76.9500 191° South 281 323 4,500 -1,020 Descending Potomac TRACON
01:26PM 38.7667 -76.9500 180° South 226 260 4,100 -300 Descending Potomac TRACON
01:27PM 38.7167 -76.9333 165° South 192 221 4,000 -240 Descending Potomac TRACON
01:28PM 38.6667 -76.9500 195° South 195 224 3,700 -480 Descending Potomac TRACON
01:29PM 38.6833 -77.0000 293° West 167 192 3,100 -840 Descending Potomac TRACON
01:30PM 38.7167 -77.0333 322° Northwest 161 185 2,100 -960 Descending Potomac TRACON